createdAt,value
2018-12-08T00:00:43.474Z,13.30
2018-12-08T00:03:11.728Z,7.93
2018-12-08T00:05:39.834Z,13.13
2018-12-08T00:08:07.968Z,10.70
2018-12-08T00:10:36.041Z,13.73
2018-12-08T00:13:04.167Z,11.87
2018-12-08T00:15:32.270Z,10.07
2018-12-08T00:18:00.383Z,15.20
2018-12-08T00:20:28.760Z,9.28
2018-12-08T00:22:56.914Z,11.23
2018-12-08T00:25:25.035Z,7.13
2018-12-08T00:27:53.171Z,10.67
2018-12-08T00:30:39.224Z,7.53
2018-12-08T00:33:07.274Z,8.30
2018-12-08T00:35:35.331Z,7.47
2018-12-08T00:38:03.508Z,6.83
2018-12-08T00:40:31.597Z,6.83
2018-12-08T00:42:59.639Z,4.17
2018-12-08T00:45:27.725Z,8.47
2018-12-08T00:47:55.858Z,6.90
2018-12-08T00:50:24.024Z,4.90
2018-12-08T00:52:52.111Z,7.92
2018-12-08T00:55:20.170Z,6.30
2018-12-08T00:57:48.275Z,5.20
2018-12-08T01:00:17.308Z,6.78
2018-12-08T01:02:45.403Z,6.35
2018-12-08T01:05:13.540Z,8.63
2018-12-08T01:07:41.592Z,4.67
2018-12-08T01:10:10.025Z,6.83
2018-12-08T01:12:38.098Z,4.10
2018-12-08T01:15:06.466Z,14.80
2018-12-08T01:17:34.540Z,8.73
2018-12-08T01:20:03.344Z,8.30
2018-12-08T01:22:31.487Z,6.30
2018-12-08T01:24:59.636Z,4.17
2018-12-08T01:27:27.826Z,9.30
2018-12-08T01:29:55.886Z,10.25
2018-12-08T01:32:23.946Z,5.27
2018-12-08T01:34:52.111Z,6.67
2018-12-08T01:37:20.170Z,7.80
2018-12-08T01:39:48.230Z,6.03
2018-12-08T01:42:16.420Z,9.40
2018-12-08T01:44:44.478Z,9.23
2018-12-08T01:47:12.557Z,11.10
2018-12-08T01:49:40.681Z,7.70
2018-12-08T01:52:08.749Z,10.67
2018-12-08T01:54:36.794Z,8.23
2018-12-08T01:57:04.899Z,10.63
2018-12-08T01:59:33.030Z,8.27
2018-12-08T02:02:02.294Z,6.53
2018-12-08T02:04:30.359Z,5.27
2018-12-08T02:06:58.407Z,6.37
2018-12-08T02:09:26.482Z,7.17
2018-12-08T02:11:54.539Z,7.00
2018-12-08T02:14:22.594Z,8.47
2018-12-08T02:16:50.658Z,8.43
2018-12-08T02:19:18.857Z,11.57
2018-12-08T02:21:47.023Z,10.47
2018-12-08T02:24:15.356Z,5.07
2018-12-08T02:26:43.417Z,10.80
2018-12-08T02:29:11.481Z,8.10
2018-12-08T02:31:39.566Z,9.70
2018-12-08T02:34:08.762Z,11.03
2018-12-08T02:36:36.853Z,8.43
2018-12-08T02:39:06.580Z,8.83
2018-12-08T02:41:34.724Z,12.20
2018-12-08T02:44:02.830Z,6.75
2018-12-08T02:46:30.911Z,12.07
2018-12-08T02:48:59.024Z,13.80
2018-12-08T02:51:27.170Z,8.50
2018-12-08T02:53:55.219Z,10.00
2018-12-08T02:56:23.340Z,6.60
2018-12-08T02:58:51.484Z,9.00
2018-12-08T03:03:59.327Z,11.53
2018-12-08T03:06:27.430Z,8.37
2018-12-08T03:08:55.510Z,9.73
2018-12-08T03:11:23.595Z,7.73
2018-12-08T03:13:51.699Z,15.50
2018-12-08T03:16:19.809Z,8.97
2018-12-08T03:18:47.978Z,9.83
2018-12-08T03:21:16.039Z,11.73
2018-12-08T03:23:44.203Z,6.50
2018-12-08T03:26:12.637Z,13.55
2018-12-08T03:28:40.755Z,6.97
2018-12-08T03:31:08.871Z,8.87
2018-12-08T03:33:37.000Z,7.60
2018-12-08T03:36:05.086Z,14.57
2018-12-08T03:38:33.144Z,5.97
2018-12-08T03:41:01.302Z,5.43
2018-12-08T03:43:29.435Z,5.77
2018-12-08T03:45:57.472Z,7.05
2018-12-08T03:48:25.602Z,5.12
2018-12-08T03:50:53.657Z,5.40
2018-12-08T03:53:21.707Z,4.57
2018-12-08T03:55:50.356Z,5.28
2018-12-08T03:58:18.494Z,4.97
2018-12-08T04:00:46.547Z,4.47
2018-12-08T04:03:14.678Z,4.90
2018-12-08T04:05:42.766Z,7.60
2018-12-08T04:08:10.818Z,6.33
2018-12-08T04:10:38.906Z,13.27
2018-12-08T04:13:06.953Z,5.23
2018-12-08T04:15:35.260Z,5.50
2018-12-08T04:18:03.411Z,5.47
2018-12-08T04:20:31.527Z,7.85
2018-12-08T04:22:59.581Z,5.70
2018-12-08T04:25:27.656Z,7.07
2018-12-08T04:27:56.557Z,7.80
2018-12-08T04:30:24.710Z,5.13
2018-12-08T04:32:52.808Z,7.47
2018-12-08T04:35:20.893Z,7.20
2018-12-08T04:37:49.035Z,10.83
2018-12-08T04:40:17.126Z,8.50
2018-12-08T04:42:45.427Z,11.00
2018-12-08T04:45:13.547Z,7.65
2018-12-08T04:47:41.611Z,6.77
2018-12-08T04:50:09.843Z,8.50
2018-12-08T04:52:37.982Z,8.23
2018-12-08T04:55:06.126Z,9.90
2018-12-08T04:57:34.233Z,5.80
2018-12-08T05:00:02.647Z,6.63
2018-12-08T05:02:30.738Z,9.23
2018-12-08T05:04:58.882Z,5.60
2018-12-08T05:07:27.056Z,10.10
2018-12-08T05:09:55.142Z,7.90
2018-12-08T05:12:23.270Z,9.78
2018-12-08T05:14:51.386Z,6.97
2018-12-08T05:17:19.487Z,6.93
2018-12-08T05:19:47.570Z,8.30
2018-12-08T05:22:15.680Z,6.73
2018-12-08T05:24:43.731Z,3.92
2018-12-08T05:27:11.807Z,4.93
2018-12-08T05:29:39.887Z,6.90
2018-12-08T05:32:07.974Z,8.08
2018-12-08T05:34:36.984Z,6.75
2018-12-08T05:37:05.079Z,8.80
2018-12-08T05:39:33.206Z,9.35
2018-12-08T05:42:01.323Z,4.13
2018-12-08T05:44:29.455Z,8.87
2018-12-08T05:46:57.655Z,4.72
2018-12-08T05:49:25.740Z,5.30
2018-12-08T05:51:53.840Z,4.30
2018-12-08T05:54:21.882Z,7.47
2018-12-08T05:56:51.068Z,4.65
2018-12-08T05:59:19.155Z,6.70
2018-12-08T06:01:47.209Z,7.77
2018-12-08T06:04:15.259Z,4.03
2018-12-08T06:06:43.336Z,7.17
2018-12-08T06:09:11.474Z,5.23
2018-12-08T06:11:39.519Z,6.00
2018-12-08T06:14:07.570Z,5.00
2018-12-08T06:16:35.727Z,9.40
2018-12-08T06:19:03.826Z,5.17
2018-12-08T06:21:36.823Z,7.43
2018-12-08T06:24:05.178Z,6.17
2018-12-08T06:26:37.662Z,7.27
2018-12-08T06:29:05.864Z,8.13
2018-12-08T06:31:33.946Z,5.47
2018-12-08T06:34:02.035Z,5.17
2018-12-08T06:36:30.109Z,7.57
2018-12-08T06:38:58.275Z,6.87
2018-12-08T06:41:26.437Z,7.30
2018-12-08T06:43:54.494Z,5.07
2018-12-08T06:46:22.582Z,6.20
2018-12-08T06:48:50.672Z,10.08
2018-12-08T06:51:18.882Z,4.70
2018-12-08T06:53:46.938Z,6.10
2018-12-08T06:56:14.990Z,5.62
2018-12-08T06:58:43.055Z,8.27
2018-12-08T07:01:11.136Z,4.20
2018-12-08T07:03:39.186Z,4.93
2018-12-08T07:06:07.281Z,9.90
2018-12-08T07:08:35.374Z,3.53
2018-12-08T07:11:03.446Z,5.13
2018-12-08T07:13:32.656Z,8.83
2018-12-08T07:16:00.774Z,3.77
2018-12-08T07:18:28.907Z,4.80
2018-12-08T07:20:56.961Z,5.33
2018-12-08T07:23:25.144Z,6.20
2018-12-08T07:25:53.276Z,7.10
2018-12-08T07:28:21.420Z,5.53
2018-12-08T07:30:49.527Z,4.00
2018-12-08T07:33:17.626Z,4.20
2018-12-08T07:35:45.675Z,3.23
2018-12-08T07:38:13.846Z,4.57
2018-12-08T07:40:41.936Z,5.28
2018-12-08T07:43:10.128Z,8.93
2018-12-08T07:45:38.230Z,8.80
2018-12-08T07:48:06.301Z,8.60
2018-12-08T07:50:34.426Z,9.57
2018-12-08T07:53:04.377Z,8.53
2018-12-08T07:55:32.540Z,8.70
2018-12-08T07:58:00.591Z,5.53
2018-12-08T08:00:28.731Z,6.27
2018-12-08T08:02:56.782Z,6.47
2018-12-08T08:05:24.900Z,10.20
2018-12-08T08:07:53.022Z,6.07
2018-12-08T08:10:21.111Z,8.80
2018-12-08T08:12:49.179Z,7.47
2018-12-08T08:15:17.289Z,8.00
2018-12-08T08:17:45.342Z,9.40
2018-12-08T08:20:13.558Z,6.67
2018-12-08T08:22:41.687Z,10.83
2018-12-08T08:25:09.754Z,9.23
2018-12-08T08:27:37.839Z,9.93
2018-12-08T08:30:08.674Z,8.57
2018-12-08T08:32:36.750Z,4.43
2018-12-08T08:35:05.895Z,6.27
2018-12-08T08:37:34.628Z,6.87
2018-12-08T08:40:04.158Z,6.90
2018-12-08T08:42:32.223Z,5.33
2018-12-08T08:45:00.320Z,4.37
2018-12-08T08:47:28.427Z,6.13
2018-12-08T08:49:56.562Z,6.47
2018-12-08T08:52:24.697Z,7.80
2018-12-08T08:54:52.748Z,6.87
2018-12-08T08:57:20.808Z,7.80
2018-12-08T08:59:48.911Z,7.77
2018-12-08T09:02:17.269Z,8.90
2018-12-08T09:04:45.342Z,12.00
2018-12-08T09:07:13.488Z,9.10
2018-12-08T09:09:41.558Z,5.93
2018-12-08T09:12:09.663Z,8.33
2018-12-08T09:14:37.760Z,12.70
2018-12-08T09:17:05.836Z,10.13
2018-12-08T09:19:33.895Z,8.77
2018-12-08T09:22:01.954Z,8.20
2018-12-08T09:24:29.999Z,8.37
2018-12-08T09:26:58.066Z,15.33
2018-12-08T09:29:26.309Z,8.60
2018-12-08T09:31:54.404Z,11.17
2018-12-08T09:34:22.467Z,11.97
2018-12-08T09:36:50.532Z,15.28
2018-12-08T09:39:18.594Z,14.97
2018-12-08T09:41:47.262Z,17.00
2018-12-08T09:44:15.317Z,13.67
2018-12-08T09:46:43.367Z,16.60
2018-12-08T09:49:11.434Z,11.90
2018-12-08T09:51:39.482Z,11.38
2018-12-08T09:54:07.592Z,16.33
2018-12-08T09:56:36.775Z,16.46
2018-12-08T09:59:04.833Z,16.63
2018-12-08T10:01:32.898Z,11.80
2018-12-08T10:04:00.948Z,17.27
2018-12-08T10:06:29.016Z,11.33
2018-12-08T10:08:57.112Z,13.97
2018-12-08T10:11:25.259Z,13.60
2018-12-08T10:13:53.347Z,15.37
2018-12-08T10:16:21.458Z,13.20
2018-12-08T10:18:49.518Z,17.70
2018-12-08T10:21:17.587Z,14.90
2018-12-08T10:23:45.643Z,18.85
2018-12-08T10:26:13.716Z,14.25
2018-12-08T10:28:41.783Z,16.07
2018-12-08T10:31:09.876Z,13.35
2018-12-08T10:33:38.011Z,21.00
2018-12-08T10:36:06.120Z,20.03
2018-12-08T10:38:34.302Z,12.50
2018-12-08T10:41:02.392Z,13.50
2018-12-08T10:43:30.478Z,16.00
2018-12-08T10:45:58.550Z,15.67
2018-12-08T10:48:26.685Z,18.93
2018-12-08T10:50:54.931Z,11.73
2018-12-08T10:53:22.991Z,14.10
2018-12-08T10:55:51.114Z,19.80
2018-12-08T10:58:19.170Z,18.23
2018-12-08T11:00:52.970Z,15.13
2018-12-08T11:03:26.646Z,18.27
2018-12-08T11:05:55.106Z,15.53
2018-12-08T11:08:23.297Z,11.37
2018-12-08T11:10:51.446Z,13.80
2018-12-08T11:13:19.543Z,13.97
2018-12-08T11:15:47.637Z,14.13
2018-12-08T11:18:15.711Z,15.50
2018-12-08T11:20:44.304Z,14.03
2018-12-08T11:23:12.418Z,16.03
2018-12-08T11:25:40.831Z,17.63
2018-12-08T11:28:08.880Z,16.20
2018-12-08T11:30:36.942Z,16.30
2018-12-08T11:33:05.042Z,14.28
2018-12-08T11:35:33.110Z,12.70
2018-12-08T11:38:01.169Z,15.63
2018-12-08T11:40:29.231Z,14.67
2018-12-08T11:42:57.561Z,15.87
2018-12-08T11:45:25.669Z,10.53
2018-12-08T11:47:53.734Z,11.28
2018-12-08T11:50:21.801Z,11.63
2018-12-08T11:52:53.250Z,19.57
2018-12-08T11:55:29.925Z,14.57
2018-12-08T11:57:52.609Z,15.47
2018-12-08T12:00:20.834Z,11.57
2018-12-08T12:02:49.356Z,16.33
2018-12-08T12:05:18.323Z,18.57
2018-12-08T12:07:47.769Z,14.37
2018-12-08T12:10:15.899Z,16.40
2018-12-08T12:12:44.019Z,15.63
2018-12-08T12:15:12.094Z,20.37
2018-12-08T12:17:41.161Z,10.40
2018-12-08T12:20:09.377Z,13.60
2018-12-08T12:22:37.655Z,15.77
2018-12-08T12:25:06.790Z,13.73
2018-12-08T12:27:35.078Z,17.20
2018-12-08T12:30:04.316Z,16.60
2018-12-08T12:32:32.664Z,16.87
2018-12-08T12:35:00.771Z,13.80
2018-12-08T12:37:28.850Z,15.73
2018-12-08T12:39:56.914Z,14.03
2018-12-08T12:42:24.980Z,17.40
2018-12-08T12:44:53.038Z,13.60
2018-12-08T12:47:21.106Z,13.73
2018-12-08T12:49:49.229Z,15.10
2018-12-08T12:52:17.308Z,12.67
2018-12-08T12:54:45.392Z,10.53
2018-12-08T12:57:14.593Z,13.80
2018-12-08T12:59:42.782Z,12.23
2018-12-08T13:02:10.930Z,18.17
2018-12-08T13:04:39.004Z,14.50
2018-12-08T13:07:07.203Z,9.33
2018-12-08T13:09:35.350Z,16.77
2018-12-08T13:12:03.611Z,12.47
2018-12-08T13:14:31.674Z,13.48
2018-12-08T13:17:00.059Z,9.65
2018-12-08T13:19:28.112Z,12.10
2018-12-08T13:21:56.175Z,15.47
2018-12-08T13:24:29.758Z,16.53
2018-12-08T13:26:57.863Z,12.93
2018-12-08T13:29:27.651Z,15.50
2018-12-08T13:31:55.944Z,17.37
2018-12-08T13:34:25.580Z,17.27
2018-12-08T13:36:53.742Z,16.27
2018-12-08T13:39:21.891Z,16.43
2018-12-08T13:41:50.163Z,14.67
2018-12-08T13:44:34.398Z,14.33
2018-12-08T13:47:03.183Z,17.53
2018-12-08T13:49:31.293Z,21.68
2018-12-08T13:51:59.349Z,15.50
2018-12-08T13:54:45.379Z,15.55
2018-12-08T13:57:13.484Z,17.67
2018-12-08T13:59:42.120Z,21.10
2018-12-08T14:02:10.266Z,15.00
2018-12-08T14:04:38.332Z,12.97
2018-12-08T14:07:06.437Z,15.90
2018-12-08T14:09:35.627Z,18.73
2018-12-08T14:12:03.775Z,16.43
2018-12-08T14:14:31.922Z,17.73
2018-12-08T14:17:00.071Z,25.50
2018-12-08T14:19:28.206Z,23.00
2018-12-08T14:21:56.275Z,15.17
2018-12-08T14:24:24.326Z,18.50
2018-12-08T14:26:52.394Z,18.10
2018-12-08T14:29:20.463Z,17.93
2018-12-08T14:31:48.763Z,20.30
2018-12-08T14:34:17.142Z,22.00
2018-12-08T14:36:45.276Z,17.77
2018-12-08T14:39:13.331Z,25.73
2018-12-08T14:41:41.438Z,18.73
2018-12-08T14:44:09.531Z,22.23
2018-12-08T14:46:37.643Z,20.00
2018-12-08T14:49:05.700Z,19.33
2018-12-08T14:51:33.795Z,27.37
2018-12-08T14:54:01.863Z,21.83
2018-12-08T14:56:30.036Z,15.07
2018-12-08T14:58:59.238Z,21.10
2018-12-08T15:01:27.408Z,27.17
2018-12-08T15:03:55.601Z,22.27
2018-12-08T15:06:23.698Z,17.90
2018-12-08T15:08:51.821Z,24.37
2018-12-08T15:11:19.910Z,26.17
2018-12-08T15:13:47.982Z,19.02
2018-12-08T15:16:16.319Z,26.33
2018-12-08T15:18:44.422Z,21.57
2018-12-08T15:21:12.486Z,24.43
2018-12-08T15:23:40.583Z,25.90
2018-12-08T15:26:08.701Z,20.97
2018-12-08T15:28:36.799Z,24.83
2018-12-08T15:31:04.891Z,18.10
2018-12-08T15:33:32.986Z,19.30
2018-12-08T15:36:02.210Z,23.47
2018-12-08T15:38:30.303Z,26.00
2018-12-08T15:40:58.399Z,19.37
2018-12-08T15:43:26.776Z,25.37
2018-12-08T15:45:54.975Z,19.53
2018-12-08T15:48:23.095Z,18.05
2018-12-08T15:50:51.177Z,23.85
2018-12-08T15:53:19.338Z,17.13
2018-12-08T15:55:47.420Z,17.73
2018-12-08T15:58:15.507Z,15.73
2018-12-08T16:00:43.725Z,21.73
2018-12-08T16:03:11.795Z,14.30
2018-12-08T16:05:39.850Z,16.55
2018-12-08T16:08:08.481Z,22.78
2018-12-08T16:10:36.551Z,14.87
2018-12-08T16:13:04.646Z,19.67
2018-12-08T16:15:32.791Z,15.40
2018-12-08T16:18:00.953Z,17.15
2018-12-08T16:20:29.051Z,19.90
2018-12-08T16:22:57.122Z,13.75
2018-12-08T16:25:25.231Z,14.97
2018-12-08T16:27:53.289Z,15.93
2018-12-08T16:30:21.386Z,17.13
2018-12-08T16:32:49.961Z,13.38
2018-12-08T16:35:18.058Z,16.53
2018-12-08T16:37:46.122Z,20.33
2018-12-08T16:40:14.227Z,12.03
2018-12-08T16:42:42.286Z,20.07
2018-12-08T16:45:10.388Z,11.43
2018-12-08T16:47:38.534Z,11.40
2018-12-08T16:50:07.086Z,12.97
2018-12-08T16:52:35.145Z,12.80
2018-12-08T16:55:03.315Z,10.65
2018-12-08T16:57:31.450Z,12.33
2018-12-08T16:59:59.575Z,7.43
2018-12-08T17:02:27.762Z,7.97
2018-12-08T17:04:55.822Z,9.63
2018-12-08T17:07:23.918Z,10.10
2018-12-08T17:09:52.030Z,11.10
2018-12-08T17:12:20.126Z,6.80
2018-12-08T17:14:48.218Z,10.17
2018-12-08T17:17:16.321Z,6.27
2018-12-08T17:19:44.383Z,9.90
2018-12-08T17:22:12.448Z,11.33
2018-12-08T17:24:40.575Z,9.27
2018-12-08T17:27:10.024Z,7.22
2018-12-08T17:29:38.262Z,10.27
2018-12-08T17:32:06.350Z,10.53
2018-12-08T17:34:34.448Z,9.43
2018-12-08T17:37:02.560Z,7.30
2018-12-08T17:39:30.622Z,10.95
2018-12-08T17:41:58.837Z,7.10
2018-12-08T17:44:27.008Z,6.70
2018-12-08T17:46:55.183Z,9.30
2018-12-08T17:49:23.271Z,5.37
2018-12-08T17:51:51.415Z,6.93
2018-12-08T17:54:19.474Z,6.50
2018-12-08T17:56:47.562Z,4.20
2018-12-08T17:59:15.702Z,4.93
2018-12-08T18:01:44.000Z,7.50
2018-12-08T18:04:12.142Z,5.57
2018-12-08T18:06:40.251Z,4.07
2018-12-08T18:09:08.389Z,2.52
2018-12-08T18:11:36.461Z,2.33
2018-12-08T18:14:04.947Z,3.33
2018-12-08T18:16:33.507Z,3.60
2018-12-08T18:19:01.606Z,2.93
2018-12-08T18:21:30.042Z,2.10
2018-12-08T18:23:58.228Z,3.43
2018-12-08T18:26:26.352Z,2.90
2018-12-08T18:28:54.527Z,2.43
2018-12-08T18:31:22.662Z,4.03
2018-12-08T18:33:50.727Z,3.83
2018-12-08T18:36:18.823Z,4.83
2018-12-08T18:38:46.886Z,2.27
2018-12-08T18:41:14.969Z,2.05
2018-12-08T18:43:43.043Z,2.13
2018-12-08T18:46:12.006Z,2.10
2018-12-08T18:48:40.066Z,1.90
2018-12-08T18:51:08.234Z,2.73
2018-12-08T18:53:36.350Z,4.30
2018-12-08T18:56:04.429Z,2.53
2018-12-08T18:58:32.500Z,2.80
2018-12-08T19:01:00.580Z,4.60
2018-12-08T19:03:28.730Z,2.87
2018-12-08T19:05:56.862Z,2.67
2018-12-08T19:08:25.071Z,1.47
2018-12-08T19:10:53.126Z,2.67
2018-12-08T19:13:21.191Z,1.50
2018-12-08T19:15:49.248Z,2.40
2018-12-08T19:18:17.495Z,2.30
2018-12-08T19:20:45.559Z,1.20
2018-12-08T19:23:13.706Z,2.17
2018-12-08T19:25:41.789Z,1.30
2018-12-08T19:28:09.879Z,2.45
2018-12-08T19:30:37.967Z,2.80
2018-12-08T19:33:06.109Z,1.17
2018-12-08T19:35:34.247Z,3.00
2018-12-08T19:38:02.310Z,2.27
2018-12-08T19:40:31.122Z,3.70
2018-12-08T19:42:59.182Z,1.23
2018-12-08T19:45:27.303Z,2.83
2018-12-08T19:47:55.458Z,3.63
2018-12-08T19:50:23.543Z,3.73
2018-12-08T19:52:51.603Z,1.97
2018-12-08T19:55:19.658Z,3.10
2018-12-08T19:57:47.721Z,1.57
2018-12-08T20:00:15.778Z,3.13
2018-12-08T20:02:43.902Z,2.57
2018-12-08T20:05:12.042Z,3.50
2018-12-08T20:07:40.151Z,2.00
2018-12-08T20:10:08.432Z,1.20
2018-12-08T20:12:36.546Z,1.83
2018-12-08T20:15:07.741Z,1.27
2018-12-08T20:17:35.786Z,1.30
2018-12-08T20:20:05.166Z,8.43
2018-12-08T20:22:33.255Z,2.87
2018-12-08T20:25:01.498Z,2.30
2018-12-08T20:27:29.657Z,1.57
2018-12-08T20:29:58.123Z,3.62
2018-12-08T20:32:26.201Z,2.53
2018-12-08T20:34:54.243Z,3.93
2018-12-08T20:37:22.302Z,2.83
2018-12-08T20:39:50.363Z,5.20
2018-12-08T20:42:18.418Z,3.07
2018-12-08T20:44:46.566Z,5.00
2018-12-08T20:47:14.702Z,2.53
2018-12-08T20:49:42.770Z,3.33
2018-12-08T20:52:10.867Z,4.77
2018-12-08T20:54:38.995Z,4.20
2018-12-08T20:57:07.061Z,5.13
2018-12-08T20:59:35.234Z,4.62
2018-12-08T21:02:03.342Z,3.20
2018-12-08T21:04:31.406Z,4.87
2018-12-08T21:06:59.462Z,2.77
2018-12-08T21:09:28.655Z,2.73
2018-12-08T21:11:56.728Z,4.63
2018-12-08T21:14:24.858Z,1.47
2018-12-08T21:16:52.920Z,3.57
2018-12-08T21:19:21.003Z,3.17
2018-12-08T21:21:49.070Z,2.77
2018-12-08T21:24:17.130Z,2.52
2018-12-08T21:26:45.211Z,4.40
2018-12-08T21:29:14.851Z,3.15
2018-12-08T21:31:43.280Z,6.05
2018-12-08T21:34:11.336Z,3.73
2018-12-08T21:36:39.430Z,4.50
2018-12-08T21:39:08.654Z,5.17
2018-12-08T21:41:36.814Z,4.93
2018-12-08T21:44:04.898Z,3.10
2018-12-08T21:46:32.978Z,3.73
2018-12-08T21:49:01.019Z,7.73
2018-12-08T21:51:29.279Z,5.08
2018-12-08T21:53:57.344Z,6.40
2018-12-08T21:56:25.514Z,6.73
2018-12-08T21:58:53.578Z,10.27
2018-12-08T22:01:21.713Z,8.23
2018-12-08T22:03:49.882Z,7.63
2018-12-08T22:06:17.970Z,5.13
2018-12-08T22:08:46.035Z,12.43
2018-12-08T22:11:14.174Z,8.57
2018-12-08T22:13:42.247Z,11.20
2018-12-08T22:16:10.311Z,9.83
2018-12-08T22:18:38.374Z,10.33
2018-12-08T22:21:06.431Z,10.43
2018-12-08T22:23:34.527Z,8.37
2018-12-08T22:26:02.623Z,10.80
2018-12-08T22:28:30.695Z,8.57
2018-12-08T22:30:58.757Z,16.87
2018-12-08T22:33:27.345Z,12.17
2018-12-08T22:35:55.527Z,11.73
2018-12-08T22:38:23.811Z,12.03
2018-12-08T22:40:51.866Z,11.13
2018-12-08T22:43:19.931Z,22.90
2018-12-08T22:45:47.992Z,17.00
2018-12-08T22:48:16.074Z,16.53
2018-12-08T22:50:44.132Z,13.80
2018-12-08T22:53:12.200Z,16.35
2018-12-08T22:55:41.138Z,16.30
2018-12-08T22:58:09.191Z,21.50
2018-12-08T23:00:44.926Z,14.10
2018-12-08T23:03:14.815Z,24.10
2018-12-08T23:05:43.209Z,22.25
2018-12-08T23:08:11.371Z,20.17
2018-12-08T23:10:40.490Z,18.47
2018-12-08T23:13:08.586Z,15.07
2018-12-08T23:15:36.732Z,14.63
2018-12-08T23:18:04.947Z,18.97
2018-12-08T23:20:33.182Z,17.57
2018-12-08T23:23:01.351Z,17.93
2018-12-08T23:25:29.454Z,21.40
2018-12-08T23:27:57.542Z,20.27
2018-12-08T23:30:25.651Z,15.07
2018-12-08T23:32:53.743Z,18.90
2018-12-08T23:35:21.842Z,14.80
2018-12-08T23:37:49.963Z,15.47
2018-12-08T23:40:18.153Z,13.87
2018-12-08T23:42:46.275Z,8.70
2018-12-08T23:45:14.372Z,11.68
2018-12-08T23:47:42.449Z,9.97
2018-12-08T23:50:10.619Z,17.87
2018-12-08T23:52:39.134Z,22.20
2018-12-08T23:55:07.295Z,15.20
2018-12-08T23:57:35.359Z,14.67
